createdAt,value
2022-09-05T00:01:46.142Z,57.31
2022-09-05T00:04:28.324Z,56.67
2022-09-05T00:07:59.621Z,56.82
2022-09-05T00:11:41.892Z,56.54
2022-09-05T00:13:52.109Z,56.67
2022-09-05T00:16:52.155Z,56.55
2022-09-05T00:24:23.323Z,56.36
2022-09-05T00:24:36.940Z,56.62
2022-09-05T00:25:45.827Z,56.55
2022-09-05T00:28:25.721Z,56.39
2022-09-05T00:31:08.117Z,56.38
2022-09-05T00:34:20.567Z,56.63
2022-09-05T00:36:54.803Z,56.71
2022-09-05T00:39:38.668Z,56.27
2022-09-05T00:42:18.078Z,56.57
2022-09-05T00:44:55.285Z,56.27
2022-09-05T00:47:48.403Z,56.33
2022-09-05T00:50:24.662Z,56.25
2022-09-05T00:53:07.372Z,56.48
2022-09-05T00:55:58.889Z,56.20
2022-09-05T00:58:41.989Z,56.48
2022-09-05T01:01:31.123Z,56.47
2022-09-05T01:04:26.943Z,56.55
2022-09-05T01:07:31.987Z,56.66
2022-09-05T01:10:31.404Z,56.75
2022-09-05T01:13:16.901Z,56.37
2022-09-05T01:16:12.685Z,56.51
2022-09-05T01:18:55.907Z,56.58
2022-09-05T01:21:51.772Z,56.62
2022-09-05T01:24:45.057Z,56.51
2022-09-05T01:28:02.502Z,56.28
2022-09-05T01:30:31.992Z,56.25
2022-09-05T01:33:18.988Z,56.40
2022-09-05T01:36:13.019Z,56.55
2022-09-05T01:40:12.199Z,56.22
2022-09-05T01:42:12.992Z,56.30
2022-09-05T01:44:47.443Z,55.99
2022-09-05T01:47:39.525Z,56.37
2022-09-05T01:50:42.674Z,56.17
2022-09-05T01:53:54.045Z,56.05
2022-09-05T01:56:30.981Z,56.00
2022-09-05T01:59:14.040Z,55.80
2022-09-05T02:02:00.566Z,55.77
2022-09-05T02:04:46.649Z,55.65
2022-09-05T02:07:31.114Z,55.69
2022-09-05T02:10:33.549Z,55.39
2022-09-05T02:13:18.704Z,55.56
2022-09-05T02:16:02.979Z,55.52
2022-09-05T02:18:36.782Z,55.28
2022-09-05T02:21:13.747Z,55.19
2022-09-05T02:23:46.273Z,55.14
2022-09-05T02:26:30.489Z,55.31
2022-09-05T02:29:29.195Z,54.90
2022-09-05T02:32:26.800Z,55.38
2022-09-05T02:35:09.768Z,55.49
2022-09-05T02:40:56.027Z,55.40
2022-09-05T02:45:09.111Z,55.07
2022-09-05T02:45:15.333Z,54.98
2022-09-05T02:47:22.437Z,55.05
2022-09-05T02:53:21.754Z,54.93
2022-09-05T02:57:27.085Z,55.17
2022-09-05T02:57:29.970Z,55.15
2022-09-05T02:59:09.502Z,54.72
2022-09-05T03:02:25.324Z,54.51
2022-09-05T03:05:15.545Z,54.76
2022-09-05T03:08:07.462Z,54.75
2022-09-05T03:10:56.375Z,54.28
2022-09-05T03:14:01.756Z,54.77
2022-09-05T03:16:48.323Z,54.70
2022-09-05T03:19:15.910Z,54.40
2022-09-05T03:22:23.008Z,53.93
2022-09-05T03:24:56.794Z,54.21
2022-09-05T03:28:10.438Z,53.94
2022-09-05T03:31:22.121Z,53.73
2022-09-05T03:33:56.530Z,53.24
2022-09-05T03:36:49.074Z,53.34
2022-09-05T03:39:22.931Z,53.26
2022-09-05T03:42:41.646Z,53.25
2022-09-05T03:45:11.889Z,53.04
2022-09-05T03:48:28.575Z,53.43
2022-09-05T03:57:06.848Z,53.30
2022-09-05T03:57:25.522Z,53.46
2022-09-05T03:57:42.701Z,53.70
2022-09-05T04:00:26.193Z,53.55
2022-09-05T04:08:07.559Z,53.20
2022-09-05T04:08:16.942Z,53.16
2022-09-05T04:09:09.196Z,52.81
2022-09-05T04:11:50.022Z,53.01
2022-09-05T04:14:26.763Z,53.08
2022-09-05T04:17:08.697Z,52.82
2022-09-05T04:19:50.251Z,53.39
2022-09-05T04:22:46.391Z,52.85
2022-09-05T04:26:11.159Z,53.27
2022-09-05T04:28:59.621Z,53.32
2022-09-05T04:31:39.675Z,53.83
2022-09-05T04:34:29.722Z,53.36
2022-09-05T04:37:47.791Z,53.58
2022-09-05T04:40:45.294Z,53.66
2022-09-05T04:43:19.080Z,53.65
2022-09-05T04:46:05.490Z,53.75
2022-09-05T04:49:23.517Z,53.96
2022-09-05T04:52:22.906Z,54.09
2022-09-05T04:55:27.244Z,53.53
2022-09-05T04:58:07.269Z,53.86
2022-09-05T05:06:02.822Z,53.88
2022-09-05T05:06:10.847Z,53.85
2022-09-05T05:07:07.744Z,53.49
2022-09-05T05:09:46.458Z,53.81
2022-09-05T05:17:54.384Z,53.76
2022-09-05T05:18:08.286Z,53.59
2022-09-05T05:18:41.007Z,53.74
2022-09-05T05:21:22.648Z,53.70
2022-09-05T05:24:10.954Z,53.70
2022-09-05T05:26:48.049Z,54.13
2022-09-05T05:29:39.076Z,54.34
2022-09-05T05:32:07.867Z,54.30
2022-09-05T05:34:43.364Z,54.06
2022-09-05T05:37:25.692Z,53.83
2022-09-05T05:40:10.580Z,53.88
2022-09-05T05:42:41.246Z,54.06
2022-09-05T05:45:31.016Z,53.76
2022-09-05T05:48:06.086Z,54.31
2022-09-05T05:50:52.899Z,54.42
2022-09-05T05:53:42.679Z,54.31
2022-09-05T05:56:56.126Z,53.86
2022-09-05T05:59:56.773Z,53.85
2022-09-05T06:02:42.105Z,54.06
2022-09-05T06:05:44.358Z,53.99
2022-09-05T06:10:45.962Z,53.87
2022-09-05T06:14:57.753Z,54.13
2022-09-05T06:15:04.946Z,54.92
2022-09-05T06:17:30.570Z,54.48
2022-09-05T06:22:11.674Z,54.49
2022-09-05T06:24:13.944Z,54.77
2022-09-05T06:27:07.015Z,54.52
2022-09-05T06:29:50.637Z,54.76
2022-09-05T06:32:40.205Z,54.54
2022-09-05T06:35:37.830Z,54.31
2022-09-05T06:38:24.574Z,54.75
2022-09-05T06:41:22.893Z,54.35
2022-09-05T06:44:23.942Z,54.49
2022-09-05T06:47:22.657Z,54.37
2022-09-05T06:50:24.560Z,54.22
2022-09-05T06:53:19.655Z,53.69
2022-09-05T06:56:25.844Z,53.77
2022-09-05T06:59:10.061Z,53.61
2022-09-05T07:02:00.806Z,53.32
2022-09-05T07:05:37.489Z,53.14
2022-09-05T07:07:45.997Z,52.76
2022-09-05T07:10:37.833Z,52.65
2022-09-05T07:13:09.535Z,52.59
2022-09-05T07:15:49.931Z,52.16
2022-09-05T07:18:17.708Z,51.99
2022-09-05T07:21:16.970Z,52.16
2022-09-05T07:24:09.938Z,52.04
2022-09-05T07:26:53.736Z,52.21
2022-09-05T07:29:37.031Z,51.92
2022-09-05T07:32:09.710Z,52.20
2022-09-05T07:34:38.230Z,51.98
2022-09-05T07:37:18.414Z,51.81
2022-09-05T07:40:02.416Z,51.90
2022-09-05T07:43:09.308Z,52.06
2022-09-05T07:45:50.848Z,51.71
2022-09-05T07:48:34.955Z,52.16
2022-09-05T07:56:49.624Z,52.13
2022-09-05T07:57:10.213Z,52.10
2022-09-05T07:59:42.904Z,52.29
2022-09-05T08:02:12.443Z,52.44
2022-09-05T08:04:42.029Z,52.01
2022-09-05T08:07:45.965Z,52.33
2022-09-05T08:10:15.518Z,52.18
2022-09-05T08:13:24.193Z,52.73
2022-09-05T08:16:02.926Z,52.24
2022-09-05T08:18:46.231Z,52.26
2022-09-05T08:21:43.906Z,52.69
2022-09-05T08:24:17.847Z,52.65
2022-09-05T08:27:16.152Z,52.74
2022-09-05T08:29:57.363Z,52.60
2022-09-05T08:32:50.063Z,53.01
2022-09-05T08:35:29.176Z,52.82
2022-09-05T08:37:58.491Z,53.13
2022-09-05T08:40:35.789Z,53.88
2022-09-05T08:46:10.180Z,53.64
2022-09-05T08:46:46.415Z,53.56
2022-09-05T08:49:46.115Z,54.02
2022-09-05T08:52:32.949Z,54.42
2022-09-05T08:55:27.937Z,54.56
2022-09-05T08:58:41.149Z,54.75
2022-09-05T09:01:59.308Z,55.34
2022-09-05T09:05:01.539Z,55.45
2022-09-05T09:07:50.913Z,55.39
2022-09-05T09:10:38.691Z,55.74
2022-09-05T09:13:17.722Z,55.96
2022-09-05T09:15:48.849Z,56.09
2022-09-05T09:18:18.709Z,56.39
2022-09-05T09:21:31.301Z,55.99
2022-09-05T09:24:17.348Z,55.49
2022-09-05T09:26:57.357Z,56.31
2022-09-05T09:29:25.895Z,56.12
2022-09-05T09:32:10.584Z,56.89
2022-09-05T09:35:21.397Z,57.25
2022-09-05T09:37:59.827Z,57.43
2022-09-05T09:41:02.975Z,59.00
2022-09-05T09:43:57.676Z,58.41
2022-09-05T09:46:42.503Z,59.17
2022-09-05T09:49:28.910Z,58.43
2022-09-05T09:51:56.517Z,58.93
2022-09-05T09:54:49.799Z,59.36
2022-09-05T09:57:27.915Z,59.57
2022-09-05T10:00:17.702Z,59.61
2022-09-05T10:07:35.471Z,59.78
2022-09-05T10:10:51.045Z,60.14
2022-09-05T10:11:09.011Z,59.48
2022-09-05T10:12:31.059Z,59.26
2022-09-05T10:15:31.334Z,59.64
2022-09-05T10:18:07.075Z,58.67
2022-09-05T10:21:16.690Z,58.23
2022-09-05T10:23:57.543Z,59.18
2022-09-05T10:26:35.213Z,59.25
2022-09-05T10:29:36.760Z,59.18
2022-09-05T10:35:09.967Z,58.51
2022-09-05T10:35:29.637Z,60.45
2022-09-05T10:38:11.539Z,59.76
2022-09-05T10:41:20.521Z,58.67
2022-09-05T10:43:37.546Z,59.00
2022-09-05T10:46:53.036Z,58.56
2022-09-05T10:49:30.333Z,58.92
2022-09-05T10:52:18.456Z,59.40
2022-09-05T10:55:13.624Z,59.04
2022-09-05T10:58:03.101Z,59.11
2022-09-05T11:02:20.277Z,58.53
2022-09-05T11:04:16.620Z,58.91
2022-09-05T11:06:57.713Z,58.24
2022-09-05T11:09:59.655Z,58.60
2022-09-05T11:12:46.090Z,59.24
2022-09-05T11:15:18.344Z,59.37
2022-09-05T11:17:56.973Z,58.96
2022-09-05T11:20:35.853Z,59.32
2022-09-05T11:23:18.134Z,58.45
2022-09-05T11:25:47.954Z,57.52
2022-09-05T11:28:37.678Z,59.98
2022-09-05T11:31:22.382Z,58.65
2022-09-05T11:39:50.203Z,56.11
2022-09-05T11:40:07.645Z,57.50
2022-09-05T11:40:35.202Z,55.08
2022-09-05T11:43:30.062Z,57.24
2022-09-05T11:46:37.360Z,59.00
2022-09-05T11:49:32.676Z,58.03
2022-09-05T11:52:31.186Z,59.28
2022-09-05T11:55:36.651Z,58.29
2022-09-05T11:58:44.775Z,58.00
2022-09-05T12:01:43.503Z,59.96
2022-09-05T12:04:40.162Z,59.52
2022-09-05T12:07:30.195Z,60.88
2022-09-05T12:10:43.544Z,60.39
2022-09-05T12:13:29.335Z,60.50
2022-09-05T12:16:08.522Z,60.26
2022-09-05T12:19:19.612Z,60.30
2022-09-05T12:22:18.404Z,60.75
2022-09-05T12:27:36.249Z,60.92
2022-09-05T12:32:55.268Z,60.77
2022-09-05T12:36:12.903Z,60.62
2022-09-05T12:40:40.243Z,60.80
2022-09-05T12:41:34.387Z,60.63
2022-09-05T12:41:41.810Z,60.99
2022-09-05T12:44:38.597Z,59.65
2022-09-05T12:46:30.524Z,59.84
2022-09-05T12:49:13.985Z,59.31
2022-09-05T12:51:54.279Z,57.82
2022-09-05T12:54:51.735Z,57.07
2022-09-05T13:02:02.874Z,58.25
2022-09-05T13:03:07.158Z,59.02
2022-09-05T13:03:31.857Z,58.37
2022-09-05T13:06:09.734Z,58.87
2022-09-05T13:08:59.866Z,58.37
2022-09-05T13:14:48.923Z,58.68
2022-09-05T13:14:54.909Z,58.70
2022-09-05T13:17:15.883Z,58.73
2022-09-05T13:19:51.460Z,59.77
2022-09-05T13:22:22.399Z,59.97
2022-09-05T13:25:13.583Z,59.40
2022-09-05T13:27:56.823Z,59.02
2022-09-05T13:33:41.523Z,59.44
2022-09-05T13:38:11.509Z,59.70
2022-09-05T13:38:20.787Z,59.51
2022-09-05T13:39:28.451Z,60.09
2022-09-05T13:42:03.664Z,60.34
2022-09-05T13:44:38.982Z,60.17
2022-09-05T13:47:29.670Z,59.73
2022-09-05T13:50:29.137Z,59.73
2022-09-05T13:53:19.462Z,59.48
2022-09-05T13:56:03.380Z,59.72
2022-09-05T13:58:51.063Z,59.80
2022-09-05T14:01:45.701Z,59.79
2022-09-05T14:05:11.170Z,59.49
2022-09-05T14:08:19.497Z,59.55
2022-09-05T14:11:06.510Z,59.67
2022-09-05T14:13:49.153Z,59.80
2022-09-05T14:16:26.972Z,59.73
2022-09-05T14:19:15.448Z,59.88
2022-09-05T14:21:45.108Z,60.06
2022-09-05T14:24:27.637Z,60.11
2022-09-05T14:26:59.660Z,59.90
2022-09-05T14:29:39.129Z,60.24
2022-09-05T14:37:34.977Z,59.48
2022-09-05T14:37:40.489Z,59.35
2022-09-05T14:38:28.702Z,60.20
2022-09-05T14:41:45.759Z,58.52
2022-09-05T14:45:01.231Z,58.17
2022-09-05T14:47:47.436Z,58.50
2022-09-05T14:50:27.711Z,58.65
2022-09-05T14:57:23.795Z,58.57
2022-09-05T15:02:52.915Z,57.79
2022-09-05T15:02:54.384Z,58.50
2022-09-05T15:05:11.814Z,57.08
2022-09-05T15:07:48.194Z,57.83
2022-09-05T15:12:20.127Z,57.83
2022-09-05T15:13:11.058Z,57.99
2022-09-05T15:15:44.453Z,57.89
2022-09-05T15:18:29.111Z,59.33
2022-09-05T15:21:33.809Z,59.03
2022-09-05T15:24:13.767Z,58.42
2022-09-05T15:26:54.826Z,57.91
2022-09-05T15:29:23.814Z,58.24
2022-09-05T15:32:09.335Z,57.83
2022-09-05T15:34:39.236Z,58.47
2022-09-05T15:37:32.189Z,58.66
2022-09-05T15:40:22.575Z,58.44
2022-09-05T15:42:59.228Z,58.77
2022-09-05T15:45:35.978Z,59.10
2022-09-05T15:48:08.212Z,60.38
2022-09-05T15:50:43.725Z,59.83
2022-09-05T15:53:22.265Z,60.24
2022-09-05T15:56:00.260Z,60.52
2022-09-05T15:58:52.262Z,60.75
2022-09-05T16:01:58.091Z,60.73
2022-09-05T16:10:27.036Z,61.06
2022-09-05T16:10:35.961Z,61.14
2022-09-05T16:10:40.813Z,61.20
2022-09-05T16:13:15.958Z,60.96
2022-09-05T16:21:54.253Z,60.78
2022-09-05T16:23:27.784Z,61.46
2022-09-05T16:23:29.702Z,61.10
2022-09-05T16:24:58.276Z,61.84
2022-09-05T16:27:43.867Z,61.52
2022-09-05T16:30:28.091Z,61.60
2022-09-05T16:33:06.465Z,61.14
2022-09-05T16:36:03.380Z,61.76
2022-09-05T16:38:54.025Z,61.52
2022-09-05T16:41:31.088Z,61.66
2022-09-05T16:44:04.507Z,61.17
2022-09-05T16:46:40.423Z,61.23
2022-09-05T16:49:19.530Z,61.72
2022-09-05T16:52:10.008Z,61.46
2022-09-05T16:54:59.898Z,61.64
2022-09-05T16:57:32.942Z,61.75
2022-09-05T17:00:03.657Z,61.67
2022-09-05T17:02:37.527Z,61.62
2022-09-05T17:05:30.551Z,61.80
2022-09-05T17:08:29.635Z,61.66
2022-09-05T17:11:12.249Z,62.10
2022-09-05T17:13:57.350Z,61.95
2022-09-05T17:16:32.944Z,61.16
2022-09-05T17:19:04.525Z,61.24
2022-09-05T17:24:09.702Z,61.82
2022-09-05T17:29:18.357Z,61.66
2022-09-05T17:29:48.907Z,61.21
2022-09-05T17:31:46.157Z,61.33
2022-09-05T17:33:46.368Z,61.56
2022-09-05T17:36:39.229Z,61.19
2022-09-05T17:39:45.399Z,61.38
2022-09-05T17:42:33.044Z,61.52
2022-09-05T17:45:23.179Z,61.17
2022-09-05T17:47:54.305Z,61.31
2022-09-05T17:50:33.335Z,60.95
2022-09-05T17:53:26.627Z,60.56
2022-09-05T17:55:55.361Z,60.72
2022-09-05T17:58:24.533Z,61.32
2022-09-05T18:00:52.825Z,60.79
2022-09-05T18:03:42.438Z,62.09
2022-09-05T18:06:16.469Z,62.36
2022-09-05T18:08:52.771Z,62.32
2022-09-05T18:11:26.242Z,62.17
2022-09-05T18:14:10.212Z,61.61
2022-09-05T18:17:35.352Z,61.70
2022-09-05T18:19:43.975Z,61.79
2022-09-05T18:22:38.691Z,62.22
2022-09-05T18:25:42.036Z,62.10
2022-09-05T18:28:53.730Z,62.13
2022-09-05T18:31:41.463Z,62.56
2022-09-05T18:34:18.944Z,62.58
2022-09-05T18:36:49.025Z,62.66
2022-09-05T18:39:38.968Z,62.51
2022-09-05T18:42:25.811Z,62.65
2022-09-05T18:44:59.646Z,63.01
2022-09-05T18:47:52.666Z,63.20
2022-09-05T18:50:32.244Z,62.96
2022-09-05T18:53:10.246Z,63.14
2022-09-05T18:56:19.708Z,63.31
2022-09-05T18:59:10.150Z,63.06
2022-09-05T19:01:59.899Z,63.96
2022-09-05T19:04:50.469Z,62.93
2022-09-05T19:07:33.647Z,63.04
2022-09-05T19:10:34.751Z,63.10
2022-09-05T19:13:15.584Z,63.26
2022-09-05T19:16:05.310Z,63.03
2022-09-05T19:19:07.269Z,62.79
2022-09-05T19:22:45.201Z,63.18
2022-09-05T19:24:46.447Z,62.97
2022-09-05T19:29:10.471Z,63.10
2022-09-05T19:36:57.367Z,63.13
2022-09-05T19:37:06.832Z,62.93
2022-09-05T19:37:09.435Z,62.95
2022-09-05T19:40:15.722Z,63.23
2022-09-05T19:47:36.395Z,63.42
2022-09-05T19:47:37.701Z,63.58
2022-09-05T19:50:28.985Z,63.28
2022-09-05T19:53:07.039Z,63.53
2022-09-05T19:55:40.477Z,63.37
2022-09-05T19:58:29.076Z,63.51
2022-09-05T20:01:11.194Z,63.09
2022-09-05T20:03:45.383Z,63.12
2022-09-05T20:06:30.147Z,63.30
2022-09-05T20:09:17.588Z,63.42
2022-09-05T20:12:01.581Z,63.14
2022-09-05T20:14:32.210Z,63.15
2022-09-05T20:17:19.360Z,63.32
2022-09-05T20:19:48.200Z,63.22
2022-09-05T20:22:48.013Z,62.44
2022-09-05T20:25:35.066Z,62.97
2022-09-05T20:28:11.233Z,63.13
2022-09-05T20:33:52.273Z,63.23
2022-09-05T20:43:22.463Z,62.95
2022-09-05T20:43:29.516Z,63.17
2022-09-05T20:43:32.278Z,62.79
2022-09-05T20:46:43.491Z,63.52
2022-09-05T20:54:07.082Z,63.53
2022-09-05T20:54:28.818Z,63.17
2022-09-05T20:54:49.320Z,63.51
2022-09-05T20:57:20.255Z,63.60
2022-09-05T20:59:51.197Z,63.42
2022-09-05T21:02:32.927Z,63.59
2022-09-05T21:05:20.562Z,63.47
2022-09-05T21:08:02.448Z,63.46
2022-09-05T21:10:55.042Z,63.38
2022-09-05T21:13:28.607Z,63.57
2022-09-05T21:15:58.306Z,63.26
2022-09-05T21:18:34.160Z,63.51
2022-09-05T21:21:27.776Z,63.71
2022-09-05T21:24:17.995Z,63.80
2022-09-05T21:26:49.100Z,63.50
2022-09-05T21:29:33.371Z,63.31
2022-09-05T21:32:05.101Z,63.15
2022-09-05T21:34:49.224Z,63.55
2022-09-05T21:37:19.404Z,63.03
2022-09-05T21:39:58.291Z,63.03
2022-09-05T21:45:59.982Z,63.35
2022-09-05T21:47:48.294Z,63.28
2022-09-05T21:48:16.053Z,63.03
2022-09-05T21:50:49.587Z,63.07
2022-09-05T21:57:21.833Z,63.24
2022-09-05T21:59:14.689Z,63.51
2022-09-05T22:02:09.025Z,63.22
2022-09-05T22:04:41.014Z,62.85
2022-09-05T22:07:32.366Z,61.01
2022-09-05T22:10:04.505Z,60.25
2022-09-05T22:12:39.373Z,59.54
2022-09-05T22:15:29.073Z,58.92
2022-09-05T22:18:16.856Z,59.08
2022-09-05T22:20:53.509Z,58.68
2022-09-05T22:23:44.678Z,59.26
2022-09-05T22:26:14.556Z,59.32
2022-09-05T22:28:49.079Z,59.03
2022-09-05T22:31:18.799Z,59.15
2022-09-05T22:33:51.065Z,59.51
2022-09-05T22:36:20.587Z,59.40
2022-09-05T22:38:48.451Z,59.38
2022-09-05T22:41:18.062Z,59.55
2022-09-05T22:43:59.006Z,59.68
2022-09-05T22:46:26.998Z,59.28
2022-09-05T22:48:54.888Z,59.75
2022-09-05T22:51:22.826Z,59.63
2022-09-05T22:53:50.809Z,59.52
2022-09-05T22:56:33.711Z,59.34
2022-09-05T22:59:02.542Z,59.30
2022-09-05T23:01:30.940Z,59.78
2022-09-05T23:03:59.851Z,59.63
2022-09-05T23:06:27.742Z,59.41
2022-09-05T23:08:55.661Z,59.55
2022-09-05T23:11:23.628Z,59.63
2022-09-05T23:13:51.869Z,59.64
2022-09-05T23:16:20.763Z,59.16
2022-09-05T23:18:48.738Z,59.31
2022-09-05T23:21:16.888Z,59.25
2022-09-05T23:23:44.821Z,59.14
2022-09-05T23:26:14.709Z,59.54
2022-09-05T23:28:43.733Z,59.28
2022-09-05T23:31:12.943Z,58.95
2022-09-05T23:33:44.698Z,59.09
2022-09-05T23:36:16.486Z,59.09
2022-09-05T23:38:45.018Z,59.35
2022-09-05T23:41:14.728Z,59.02
2022-09-05T23:43:43.056Z,59.19
2022-09-05T23:46:12.382Z,58.96
2022-09-05T23:48:40.368Z,59.33
2022-09-05T23:51:10.615Z,59.28
2022-09-05T23:53:38.862Z,59.27
2022-09-05T23:56:10.099Z,59.27
2022-09-05T23:58:38.988Z,59.17
